createdAt,value
2018-03-29T00:01:03.553Z,195
2018-03-29T00:02:10.482Z,195
2018-03-29T00:03:17.686Z,194
2018-03-29T00:04:24.921Z,195
2018-03-29T00:05:31.854Z,195
2018-03-29T00:06:38.779Z,195
2018-03-29T00:07:45.713Z,195
2018-03-29T00:08:52.361Z,195
2018-03-29T00:09:59.810Z,195
2018-03-29T00:11:07.024Z,195
2018-03-29T00:12:13.699Z,194
2018-03-29T00:13:20.626Z,194
2018-03-29T00:14:27.839Z,193
2018-03-29T00:15:34.764Z,194
2018-03-29T00:16:41.684Z,194
2018-03-29T00:17:48.977Z,195
2018-03-29T00:18:56.186Z,194
2018-03-29T00:20:03.133Z,194
2018-03-29T00:21:10.069Z,194
2018-03-29T00:22:17.272Z,193
2018-03-29T00:23:24.475Z,194
2018-03-29T00:24:31.683Z,195
2018-03-29T00:25:38.338Z,194
2018-03-29T00:26:45.575Z,194
2018-03-29T00:27:52.792Z,195
2018-03-29T00:28:59.714Z,195
2018-03-29T00:30:06.919Z,195
2018-03-29T00:31:13.808Z,195
2018-03-29T00:32:20.740Z,195
2018-03-29T00:33:27.672Z,194
2018-03-29T00:34:34.878Z,194
2018-03-29T00:35:42.098Z,194
2018-03-29T00:36:49.305Z,194
2018-03-29T00:37:56.506Z,194
2018-03-29T00:39:03.709Z,194
2018-03-29T00:40:10.920Z,194
2018-03-29T00:41:17.851Z,195
2018-03-29T00:42:25.048Z,194
2018-03-29T00:43:32.252Z,194
2018-03-29T00:44:39.459Z,194
2018-03-29T00:45:46.402Z,194
2018-03-29T00:46:53.330Z,194
2018-03-29T00:48:00.268Z,194
2018-03-29T00:49:07.469Z,194
2018-03-29T00:50:14.697Z,194
2018-03-29T00:51:21.902Z,193
2018-03-29T00:52:29.340Z,193
2018-03-29T00:53:36.541Z,191
2018-03-29T00:54:43.742Z,191
2018-03-29T00:55:50.955Z,191
2018-03-29T00:56:58.177Z,191
2018-03-29T00:58:05.849Z,191
2018-03-29T00:59:13.054Z,191
2018-03-29T01:00:19.991Z,191
2018-03-29T01:01:27.194Z,192
2018-03-29T01:02:34.397Z,193
2018-03-29T01:03:41.595Z,193
2018-03-29T01:04:48.840Z,193
2018-03-29T01:05:56.052Z,193
2018-03-29T01:07:03.254Z,194
2018-03-29T01:08:10.465Z,194
2018-03-29T01:09:17.673Z,195
2018-03-29T01:10:24.883Z,195
2018-03-29T01:11:32.146Z,195
2018-03-29T01:12:39.348Z,195
2018-03-29T01:13:46.584Z,195
2018-03-29T01:14:53.559Z,195
2018-03-29T01:16:00.758Z,195
2018-03-29T01:17:07.974Z,195
2018-03-29T01:18:15.184Z,195
2018-03-29T01:19:22.394Z,195
2018-03-29T01:20:29.597Z,195
2018-03-29T01:21:36.816Z,194
2018-03-29T01:22:44.014Z,195
2018-03-29T01:23:51.215Z,195
2018-03-29T01:24:58.415Z,194
2018-03-29T01:26:05.631Z,195
2018-03-29T01:27:12.841Z,194
2018-03-29T01:28:19.767Z,194
2018-03-29T01:29:26.968Z,195
2018-03-29T01:30:33.896Z,194
2018-03-29T01:31:41.109Z,194
2018-03-29T01:32:48.070Z,194
2018-03-29T01:33:54.996Z,194
2018-03-29T01:35:02.219Z,194
2018-03-29T01:36:10.483Z,194
2018-03-29T01:37:16.852Z,193
2018-03-29T01:38:24.060Z,191
2018-03-29T01:39:30.987Z,191
2018-03-29T01:40:38.202Z,191
2018-03-29T01:41:45.125Z,191
2018-03-29T01:42:52.327Z,191
2018-03-29T01:43:59.262Z,191
2018-03-29T01:45:06.478Z,191
2018-03-29T01:46:13.686Z,192
2018-03-29T01:47:20.872Z,192
2018-03-29T01:48:27.525Z,192
2018-03-29T01:49:34.690Z,192
2018-03-29T01:50:41.616Z,192
2018-03-29T01:51:48.835Z,193
2018-03-29T01:52:56.035Z,192
2018-03-29T01:54:02.983Z,193
2018-03-29T01:55:10.194Z,193
2018-03-29T01:56:17.406Z,193
2018-03-29T01:57:24.331Z,193
2018-03-29T01:58:32.496Z,193
2018-03-29T01:59:39.708Z,193
2018-03-29T02:00:46.912Z,194
2018-03-29T02:01:54.130Z,194
2018-03-29T02:03:01.337Z,194
2018-03-29T02:04:07.734Z,193
2018-03-29T02:05:14.676Z,194
2018-03-29T02:06:21.602Z,194
2018-03-29T02:07:28.530Z,194
2018-03-29T02:08:35.452Z,194
2018-03-29T02:09:42.658Z,194
2018-03-29T02:10:49.842Z,194
2018-03-29T02:11:56.767Z,194
2018-03-29T02:13:03.729Z,194
2018-03-29T02:14:10.649Z,194
2018-03-29T02:15:17.809Z,194
2018-03-29T02:16:24.741Z,194
2018-03-29T02:17:31.957Z,194
2018-03-29T02:18:39.154Z,195
2018-03-29T02:19:45.841Z,194
2018-03-29T02:20:52.771Z,195
2018-03-29T02:21:59.972Z,195
2018-03-29T02:23:06.923Z,195
2018-03-29T02:24:13.568Z,194
2018-03-29T02:25:20.788Z,194
2018-03-29T02:26:27.721Z,195
2018-03-29T02:27:34.927Z,195
2018-03-29T02:28:41.043Z,195
2018-03-29T02:29:48.247Z,195
2018-03-29T02:30:55.460Z,195
2018-03-29T02:32:02.118Z,195
2018-03-29T02:33:09.319Z,195
2018-03-29T02:34:16.759Z,195
2018-03-29T02:35:23.701Z,195
2018-03-29T02:36:30.633Z,195
2018-03-29T02:37:37.839Z,195
2018-03-29T02:38:44.227Z,195
2018-03-29T02:39:51.429Z,195
2018-03-29T02:40:58.376Z,195
2018-03-29T02:42:05.979Z,195
2018-03-29T02:43:13.175Z,195
2018-03-29T02:44:19.843Z,195
2018-03-29T02:45:27.045Z,195
2018-03-29T02:46:34.252Z,195
2018-03-29T02:47:41.457Z,195
2018-03-29T02:48:48.384Z,195
2018-03-29T02:49:55.586Z,195
2018-03-29T02:51:02.529Z,195
2018-03-29T02:52:09.732Z,195
2018-03-29T02:53:16.383Z,195
2018-03-29T02:54:23.585Z,195
2018-03-29T02:55:30.508Z,195
2018-03-29T02:56:37.711Z,195
2018-03-29T02:57:44.659Z,195
2018-03-29T02:58:51.859Z,195
2018-03-29T02:59:58.521Z,196
2018-03-29T03:01:05.454Z,196
2018-03-29T03:02:12.397Z,196
2018-03-29T03:03:19.320Z,196
2018-03-29T03:04:25.974Z,196
2018-03-29T03:05:32.893Z,196
2018-03-29T03:06:40.095Z,196
2018-03-29T03:07:47.301Z,196
2018-03-29T03:08:54.229Z,196
2018-03-29T03:10:01.430Z,196
2018-03-29T03:11:08.588Z,196
2018-03-29T03:12:15.512Z,196
2018-03-29T03:13:22.440Z,196
2018-03-29T03:14:29.641Z,196
2018-03-29T03:15:36.293Z,196
2018-03-29T03:16:43.159Z,196
2018-03-29T03:17:50.363Z,196
2018-03-29T03:18:57.303Z,196
2018-03-29T03:20:04.510Z,196
2018-03-29T03:21:11.456Z,196
2018-03-29T03:22:18.100Z,196
2018-03-29T03:23:25.034Z,196
2018-03-29T03:24:32.236Z,196
2018-03-29T03:25:39.436Z,195
2018-03-29T03:26:46.647Z,196
2018-03-29T03:27:53.980Z,196
2018-03-29T03:29:00.944Z,195
2018-03-29T03:30:07.875Z,196
2018-03-29T03:31:15.088Z,196
2018-03-29T03:32:22.006Z,196
2018-03-29T03:33:28.942Z,196
2018-03-29T03:34:36.141Z,196
2018-03-29T03:35:43.342Z,196
2018-03-29T03:36:50.550Z,196
2018-03-29T03:37:57.912Z,196
2018-03-29T03:39:04.849Z,196
2018-03-29T03:40:12.050Z,196
2018-03-29T03:41:18.702Z,196
2018-03-29T03:42:25.868Z,196
2018-03-29T03:43:32.531Z,196
2018-03-29T03:44:43.285Z,196
2018-03-29T03:45:50.490Z,196
2018-03-29T03:46:57.704Z,196
2018-03-29T03:48:04.634Z,196
2018-03-29T03:49:11.582Z,196
2018-03-29T03:50:18.770Z,196
2018-03-29T03:51:25.705Z,196
2018-03-29T03:52:32.912Z,196
2018-03-29T03:53:40.109Z,196
2018-03-29T03:54:47.316Z,196
2018-03-29T03:55:54.516Z,196
2018-03-29T03:57:01.717Z,196
2018-03-29T03:58:08.644Z,196
2018-03-29T03:59:15.847Z,196
2018-03-29T04:00:23.056Z,196
2018-03-29T04:01:29.979Z,196
2018-03-29T04:02:37.183Z,196
2018-03-29T04:03:44.389Z,196
2018-03-29T04:04:51.368Z,196
2018-03-29T04:05:58.568Z,196
2018-03-29T04:07:05.776Z,196
2018-03-29T04:08:13.793Z,196
2018-03-29T04:09:20.730Z,196
2018-03-29T04:10:27.938Z,196
2018-03-29T04:11:35.150Z,196
2018-03-29T04:12:42.348Z,196
2018-03-29T04:13:49.555Z,196
2018-03-29T04:14:56.486Z,196
2018-03-29T04:16:03.412Z,196
2018-03-29T04:17:10.611Z,196
2018-03-29T04:18:17.847Z,196
2018-03-29T04:19:25.045Z,196
2018-03-29T04:20:32.263Z,196
2018-03-29T04:21:39.469Z,196
2018-03-29T04:22:46.673Z,196
2018-03-29T04:23:53.910Z,197
2018-03-29T04:25:01.110Z,196
2018-03-29T04:26:08.087Z,196
2018-03-29T04:27:15.279Z,196
2018-03-29T04:28:22.234Z,196
2018-03-29T04:29:29.438Z,196
2018-03-29T04:30:36.644Z,196
2018-03-29T04:31:43.589Z,196
2018-03-29T04:32:50.450Z,196
2018-03-29T04:33:57.660Z,196
2018-03-29T04:35:04.598Z,196
2018-03-29T04:36:11.254Z,196
2018-03-29T04:37:18.475Z,196
2018-03-29T04:38:25.674Z,197
2018-03-29T04:39:32.602Z,196
2018-03-29T04:40:39.824Z,196
2018-03-29T04:41:46.757Z,196
2018-03-29T04:42:53.687Z,196
2018-03-29T04:44:00.621Z,197
2018-03-29T04:45:07.825Z,196
2018-03-29T04:46:14.764Z,196
2018-03-29T04:47:21.963Z,196
2018-03-29T04:48:28.936Z,196
2018-03-29T04:49:35.857Z,197
2018-03-29T04:50:43.064Z,196
2018-03-29T04:51:49.990Z,196
2018-03-29T04:52:56.921Z,196
2018-03-29T04:54:03.846Z,196
2018-03-29T04:55:11.055Z,196
2018-03-29T04:56:17.926Z,196
2018-03-29T04:57:25.135Z,196
2018-03-29T04:58:32.338Z,196
2018-03-29T04:59:39.268Z,196
2018-03-29T05:00:46.466Z,196
2018-03-29T05:01:53.674Z,196
2018-03-29T05:03:00.880Z,196
2018-03-29T05:04:07.840Z,196
2018-03-29T05:05:14.782Z,196
2018-03-29T05:06:21.696Z,196
2018-03-29T05:07:28.903Z,196
2018-03-29T05:08:35.550Z,196
2018-03-29T05:09:42.752Z,196
2018-03-29T05:10:49.961Z,196
2018-03-29T05:11:56.886Z,196
2018-03-29T05:13:03.817Z,196
2018-03-29T05:14:11.016Z,196
2018-03-29T05:15:17.962Z,196
2018-03-29T05:16:25.164Z,196
2018-03-29T05:17:32.602Z,196
2018-03-29T05:18:39.803Z,196
2018-03-29T05:19:47.002Z,196
2018-03-29T05:20:54.010Z,196
2018-03-29T05:22:01.214Z,196
2018-03-29T05:23:07.879Z,196
2018-03-29T05:24:14.521Z,196
2018-03-29T05:25:21.448Z,196
2018-03-29T05:26:28.223Z,196
2018-03-29T05:27:35.465Z,196
2018-03-29T05:28:42.741Z,196
2018-03-29T05:29:49.971Z,196
2018-03-29T05:30:57.177Z,196
2018-03-29T05:32:04.376Z,196
2018-03-29T05:33:11.307Z,196
2018-03-29T05:34:18.520Z,196
2018-03-29T05:35:25.448Z,196
2018-03-29T05:36:32.886Z,196
2018-03-29T05:37:39.537Z,196
2018-03-29T05:38:46.732Z,196
2018-03-29T05:39:53.936Z,196
2018-03-29T05:41:00.889Z,196
2018-03-29T05:42:08.100Z,196
2018-03-29T05:43:15.354Z,195
2018-03-29T05:44:22.549Z,196
2018-03-29T05:45:29.759Z,196
2018-03-29T05:46:36.962Z,195
2018-03-29T05:47:44.386Z,196
2018-03-29T05:48:51.590Z,196
2018-03-29T05:49:58.788Z,196
2018-03-29T05:51:06.004Z,196
2018-03-29T05:52:12.934Z,196
2018-03-29T05:53:20.137Z,196
2018-03-29T05:54:27.336Z,195
2018-03-29T05:55:34.568Z,195
2018-03-29T05:56:41.767Z,196
2018-03-29T05:57:48.968Z,195
2018-03-29T05:58:56.455Z,195
2018-03-29T06:00:03.639Z,195
2018-03-29T06:01:10.598Z,195
2018-03-29T06:02:17.247Z,195
2018-03-29T06:03:24.697Z,196
2018-03-29T06:04:32.107Z,195
2018-03-29T06:05:39.306Z,195
2018-03-29T06:06:46.237Z,195
2018-03-29T06:07:53.438Z,195
2018-03-29T06:09:00.367Z,195
2018-03-29T06:10:07.295Z,195
2018-03-29T06:11:14.226Z,195
2018-03-29T06:12:21.153Z,195
2018-03-29T06:13:27.817Z,195
2018-03-29T06:14:35.236Z,195
2018-03-29T06:15:42.168Z,195
2018-03-29T06:16:49.089Z,195
2018-03-29T06:17:56.015Z,195
2018-03-29T06:19:03.427Z,195
2018-03-29T06:20:10.626Z,195
2018-03-29T06:21:17.279Z,194
2018-03-29T06:22:24.519Z,195
2018-03-29T06:23:31.715Z,194
2018-03-29T06:24:39.725Z,195
2018-03-29T06:25:46.927Z,194
2018-03-29T06:26:53.856Z,195
2018-03-29T06:28:00.800Z,195
2018-03-29T06:29:07.960Z,194
2018-03-29T06:30:15.163Z,194
2018-03-29T06:31:22.385Z,194
2018-03-29T06:32:29.305Z,195
2018-03-29T06:33:36.506Z,194
2018-03-29T06:34:43.157Z,194
2018-03-29T06:35:50.373Z,194
2018-03-29T06:36:57.028Z,194
2018-03-29T06:38:04.234Z,194
2018-03-29T06:39:11.162Z,195
2018-03-29T06:40:18.365Z,195
2018-03-29T06:41:25.321Z,194
2018-03-29T06:42:32.519Z,194
2018-03-29T06:43:39.440Z,194
2018-03-29T06:44:46.088Z,194
2018-03-29T06:45:53.015Z,194
2018-03-29T06:47:00.389Z,194
2018-03-29T06:48:07.325Z,194
2018-03-29T06:49:14.524Z,194
2018-03-29T06:50:20.931Z,194
2018-03-29T06:51:27.581Z,194
2018-03-29T06:52:34.526Z,194
2018-03-29T06:53:41.458Z,194
2018-03-29T06:54:48.452Z,194
2018-03-29T06:55:55.047Z,194
2018-03-29T06:57:05.161Z,193
2018-03-29T06:58:12.359Z,194
2018-03-29T06:59:20.697Z,194
2018-03-29T07:00:27.632Z,193
2018-03-29T07:01:34.567Z,193
2018-03-29T07:02:41.207Z,193
2018-03-29T07:03:48.436Z,193
2018-03-29T07:04:55.313Z,194
2018-03-29T07:06:02.512Z,193
2018-03-29T07:07:09.478Z,194
2018-03-29T07:08:31.051Z,193
2018-03-29T07:09:38.259Z,193
2018-03-29T07:10:45.469Z,193
2018-03-29T07:11:52.129Z,193
2018-03-29T07:12:59.346Z,193
2018-03-29T07:14:06.269Z,193
2018-03-29T07:15:13.234Z,193
2018-03-29T07:16:20.441Z,193
2018-03-29T07:17:27.638Z,192
2018-03-29T07:18:34.297Z,192
2018-03-29T07:19:41.508Z,193
2018-03-29T07:20:48.164Z,193
2018-03-29T07:21:55.369Z,192
2018-03-29T07:23:02.646Z,193
2018-03-29T07:24:09.039Z,193
2018-03-29T07:25:16.249Z,193
2018-03-29T07:26:23.194Z,193
2018-03-29T07:27:29.840Z,193
2018-03-29T07:28:36.764Z,193
2018-03-29T07:29:43.438Z,193
2018-03-29T07:30:50.664Z,193
2018-03-29T07:31:57.872Z,193
2018-03-29T07:33:04.807Z,193
2018-03-29T07:34:12.544Z,193
2018-03-29T07:35:19.755Z,193
2018-03-29T07:36:41.612Z,193
2018-03-29T07:37:48.860Z,193
2018-03-29T07:38:55.859Z,193
2018-03-29T07:40:03.067Z,193
2018-03-29T07:41:10.514Z,193
2018-03-29T07:42:17.945Z,193
2018-03-29T07:43:25.142Z,193
2018-03-29T07:44:32.344Z,193
2018-03-29T07:45:39.565Z,193
2018-03-29T07:46:46.766Z,193
2018-03-29T07:47:53.972Z,193
2018-03-29T07:49:01.180Z,193
2018-03-29T07:50:08.103Z,193
2018-03-29T07:51:15.032Z,193
2018-03-29T07:52:21.967Z,193
2018-03-29T07:53:28.621Z,193
2018-03-29T07:54:35.824Z,193
2018-03-29T07:55:42.469Z,193
2018-03-29T07:56:49.671Z,193
2018-03-29T07:57:56.394Z,193
2018-03-29T07:59:03.626Z,192
2018-03-29T08:00:11.062Z,192
2018-03-29T08:01:18.278Z,192
2018-03-29T08:02:25.498Z,192
2018-03-29T08:03:32.439Z,192
2018-03-29T08:04:39.365Z,192
2018-03-29T08:05:46.067Z,192
2018-03-29T08:06:53.040Z,192
2018-03-29T08:08:03.142Z,192
2018-03-29T08:09:09.517Z,192
2018-03-29T08:10:16.447Z,192
2018-03-29T08:11:23.650Z,191
2018-03-29T08:12:30.851Z,191
2018-03-29T08:13:37.512Z,191
2018-03-29T08:14:44.168Z,191
2018-03-29T08:15:51.369Z,191
2018-03-29T08:16:58.540Z,191
2018-03-29T08:18:05.738Z,191
2018-03-29T08:19:12.680Z,191
2018-03-29T08:20:19.338Z,191
2018-03-29T08:21:26.778Z,191
2018-03-29T08:22:33.981Z,191
2018-03-29T08:23:40.923Z,191
2018-03-29T08:24:47.852Z,191
2018-03-29T08:25:54.504Z,191
2018-03-29T08:27:01.215Z,191
2018-03-29T08:28:08.417Z,190
2018-03-29T22:00:06.726Z,229
2018-03-29T22:01:13.860Z,221
2018-03-29T22:02:20.822Z,218
2018-03-29T22:03:28.043Z,216
2018-03-29T22:04:35.414Z,216
2018-03-29T22:05:42.862Z,215
2018-03-29T22:06:50.249Z,214
2018-03-29T22:07:57.467Z,214
2018-03-29T22:09:04.673Z,214
2018-03-29T22:10:12.110Z,213
2018-03-29T22:11:19.307Z,213
2018-03-29T22:12:26.737Z,213
2018-03-29T22:13:33.933Z,212
2018-03-29T22:14:41.258Z,212
2018-03-29T22:15:48.488Z,212
2018-03-29T22:16:55.715Z,212
2018-03-29T22:18:02.933Z,212
2018-03-29T22:19:10.158Z,212
2018-03-29T22:20:17.366Z,212
2018-03-29T22:21:24.528Z,212
2018-03-29T22:22:31.459Z,212
2018-03-29T22:23:38.889Z,211
2018-03-29T22:24:46.131Z,211
2018-03-29T22:25:53.354Z,211
2018-03-29T22:27:00.582Z,211
2018-03-29T22:28:08.012Z,211
2018-03-29T22:29:15.228Z,211
2018-03-29T22:30:22.425Z,211
2018-03-29T22:31:29.644Z,211
2018-03-29T22:32:37.082Z,211
2018-03-29T22:33:44.369Z,211
2018-03-29T22:34:51.806Z,211
2018-03-29T22:35:59.104Z,211
2018-03-29T22:37:06.556Z,211
2018-03-29T22:38:13.779Z,211
2018-03-29T22:39:20.985Z,211
2018-03-29T22:40:28.191Z,210
2018-03-29T22:41:35.478Z,211
2018-03-29T22:42:42.699Z,210
2018-03-29T22:43:49.841Z,211
2018-03-29T22:44:57.053Z,210
2018-03-29T22:46:04.248Z,210
2018-03-29T22:47:11.452Z,210
2018-03-29T22:48:18.614Z,210
2018-03-29T22:49:25.815Z,210
2018-03-29T22:50:33.266Z,210
2018-03-29T22:51:40.480Z,210
2018-03-29T22:52:47.701Z,209
2018-03-29T22:53:54.919Z,210
2018-03-29T22:55:02.338Z,210
2018-03-29T22:56:09.556Z,210
2018-03-29T22:57:16.786Z,210
2018-03-29T22:58:23.991Z,210
2018-03-29T22:59:31.472Z,210
2018-03-29T23:00:38.684Z,210
2018-03-29T23:01:45.910Z,210
2018-03-29T23:02:53.115Z,210
2018-03-29T23:04:00.268Z,210
2018-03-29T23:05:07.513Z,209
2018-03-29T23:06:14.940Z,209
2018-03-29T23:07:21.875Z,209
2018-03-29T23:08:29.313Z,210
2018-03-29T23:09:36.531Z,210
2018-03-29T23:10:43.965Z,209
2018-03-29T23:11:51.194Z,209
2018-03-29T23:12:58.418Z,209
2018-03-29T23:14:05.638Z,209
2018-03-29T23:15:13.059Z,209
2018-03-29T23:16:20.263Z,209
2018-03-29T23:17:27.720Z,209
2018-03-29T23:18:34.923Z,209
2018-03-29T23:19:42.086Z,209
2018-03-29T23:20:49.325Z,209
2018-03-29T23:21:56.537Z,209
2018-03-29T23:23:03.475Z,209
2018-03-29T23:24:10.698Z,210
2018-03-29T23:25:17.927Z,209
2018-03-29T23:26:24.787Z,210
2018-03-29T23:27:31.434Z,209
2018-03-29T23:28:38.881Z,209
2018-03-29T23:29:45.800Z,210
2018-03-29T23:30:53.239Z,210
2018-03-29T23:32:00.138Z,209
2018-03-29T23:33:06.816Z,209
2018-03-29T23:34:13.756Z,209
2018-03-29T23:35:20.968Z,209
2018-03-29T23:36:28.188Z,209
2018-03-29T23:37:35.608Z,209
2018-03-29T23:38:42.545Z,209
2018-03-29T23:39:49.982Z,209
2018-03-29T23:40:57.206Z,209
2018-03-29T23:42:04.640Z,210
2018-03-29T23:43:11.855Z,210
2018-03-29T23:44:19.298Z,210
2018-03-29T23:45:26.497Z,210
2018-03-29T23:46:33.926Z,209
2018-03-29T23:47:41.133Z,209
2018-03-29T23:48:48.359Z,209
2018-03-29T23:49:55.586Z,209
2018-03-29T23:51:02.796Z,209
2018-03-29T23:52:09.999Z,208
2018-03-29T23:53:16.936Z,208
2018-03-29T23:54:24.135Z,208
2018-03-29T23:55:31.310Z,208
2018-03-29T23:56:38.514Z,209
2018-03-29T23:57:46.007Z,209
2018-03-29T23:58:52.947Z,209
